createdAt,value
2022-09-28T00:01:07.877Z,51.13
2022-09-28T00:03:36.236Z,51.18
2022-09-28T00:06:05.182Z,51.14
2022-09-28T00:08:33.533Z,51.21
2022-09-28T00:11:01.738Z,51.04
2022-09-28T00:13:31.826Z,50.96
2022-09-28T00:16:01.371Z,51.10
2022-09-28T00:18:29.716Z,51.21
2022-09-28T00:21:02.245Z,51.38
2022-09-28T00:23:30.419Z,50.77
2022-09-28T00:26:02.581Z,50.74
2022-09-28T00:28:32.347Z,50.79
2022-09-28T00:31:01.347Z,50.68
2022-09-28T00:33:29.823Z,51.02
2022-09-28T00:35:58.501Z,50.88
2022-09-28T00:38:29.702Z,51.04
2022-09-28T00:40:59.661Z,50.86
2022-09-28T00:43:28.220Z,50.88
2022-09-28T00:46:00.472Z,50.88
2022-09-28T00:48:30.114Z,51.19
2022-09-28T00:50:58.258Z,50.91
2022-09-28T00:53:27.326Z,50.92
2022-09-28T00:55:56.200Z,50.73
2022-09-28T00:58:25.358Z,51.11
2022-09-28T01:00:53.564Z,50.84
2022-09-28T01:03:23.513Z,50.89
2022-09-28T01:05:51.802Z,50.77
2022-09-28T01:08:21.256Z,50.63
2022-09-28T01:10:49.974Z,50.81
2022-09-28T01:13:21.402Z,51.15
2022-09-28T01:15:53.067Z,50.67
2022-09-28T01:18:26.697Z,50.82
2022-09-28T01:21:02.359Z,51.21
2022-09-28T01:23:54.447Z,51.19
2022-09-28T01:26:47.929Z,50.82
2022-09-28T01:29:20.418Z,51.18
2022-09-28T01:31:52.413Z,50.90
2022-09-28T01:34:25.906Z,50.51
2022-09-28T01:36:55.467Z,50.88
2022-09-28T01:39:25.972Z,51.09
2022-09-28T01:41:56.058Z,50.94
2022-09-28T01:44:26.137Z,50.77
2022-09-28T01:46:55.533Z,51.19
2022-09-28T01:49:25.599Z,50.66
2022-09-28T01:51:55.583Z,51.07
2022-09-28T01:54:27.253Z,50.92
2022-09-28T01:56:59.162Z,50.90
2022-09-28T01:59:28.632Z,51.24
2022-09-28T02:01:59.750Z,51.21
2022-09-28T02:04:29.770Z,50.59
2022-09-28T02:06:59.042Z,51.14
2022-09-28T02:09:33.700Z,50.94
2022-09-28T02:12:06.403Z,50.58
2022-09-28T02:14:35.026Z,50.69
2022-09-28T02:17:03.526Z,50.89
2022-09-28T02:19:32.979Z,50.54
2022-09-28T02:22:03.671Z,51.02
2022-09-28T02:24:37.070Z,50.81
2022-09-28T02:27:10.517Z,50.89
2022-09-28T02:29:38.905Z,50.81
2022-09-28T02:32:07.322Z,50.85
2022-09-28T02:34:36.255Z,50.65
2022-09-28T02:37:04.493Z,50.58
2022-09-28T02:39:32.914Z,50.41
2022-09-28T02:42:07.045Z,50.77
2022-09-28T02:44:46.146Z,50.67
2022-09-28T02:47:23.165Z,50.58
2022-09-28T02:49:52.721Z,50.34
2022-09-28T02:52:39.198Z,50.54
2022-09-28T02:55:18.765Z,50.38
2022-09-28T02:57:55.607Z,50.93
2022-09-28T03:00:25.583Z,50.47
2022-09-28T03:03:01.606Z,50.91
2022-09-28T03:05:34.410Z,50.60
2022-09-28T03:08:03.462Z,50.70
2022-09-28T03:10:36.701Z,50.59
2022-09-28T03:13:05.215Z,50.46
2022-09-28T03:15:36.301Z,50.65
2022-09-28T03:18:05.213Z,50.45
2022-09-28T03:20:33.964Z,50.91
2022-09-28T03:25:51.411Z,50.38
2022-09-28T03:28:21.398Z,50.35
2022-09-28T03:30:51.500Z,50.85
2022-09-28T03:33:20.161Z,50.78
2022-09-28T03:35:49.213Z,50.89
2022-09-28T03:38:18.327Z,50.55
2022-09-28T03:40:54.187Z,50.42
2022-09-28T03:43:22.595Z,50.78
2022-09-28T03:45:56.476Z,50.83
2022-09-28T03:48:29.872Z,50.39
2022-09-28T03:51:01.430Z,50.62
2022-09-28T03:53:30.171Z,50.59
2022-09-28T03:56:03.642Z,50.67
2022-09-28T03:58:32.583Z,50.64
2022-09-28T04:01:04.725Z,50.53
2022-09-28T04:03:33.013Z,50.67
2022-09-28T04:06:01.298Z,50.58
2022-09-28T04:08:29.669Z,50.75
2022-09-28T04:10:58.684Z,50.60
2022-09-28T04:13:28.209Z,50.46
2022-09-28T04:15:57.364Z,50.58
2022-09-28T04:18:28.258Z,50.61
2022-09-28T04:21:12.958Z,50.56
2022-09-28T04:23:47.163Z,50.47
2022-09-28T04:26:17.844Z,50.31
2022-09-28T04:29:06.557Z,50.58
2022-09-28T04:31:38.982Z,50.44
2022-09-28T04:34:08.732Z,50.87
2022-09-28T04:36:37.220Z,50.49
2022-09-28T04:39:05.479Z,50.51
2022-09-28T04:41:34.350Z,50.57
2022-09-28T04:44:03.147Z,50.85
2022-09-28T04:46:31.855Z,50.99
2022-09-28T04:49:20.259Z,50.54
2022-09-28T04:51:56.571Z,50.55
2022-09-28T04:54:24.790Z,50.87
2022-09-28T04:56:53.459Z,50.51
2022-09-28T04:59:21.814Z,50.88
2022-09-28T05:01:50.440Z,50.28
2022-09-28T05:04:39.002Z,50.47
2022-09-28T05:07:27.618Z,50.45
2022-09-28T05:09:56.662Z,50.45
2022-09-28T05:12:24.835Z,50.64
2022-09-28T05:14:53.275Z,50.36
2022-09-28T05:17:21.583Z,50.48
2022-09-28T05:19:51.252Z,50.08
2022-09-28T05:22:19.514Z,50.21
2022-09-28T05:24:48.054Z,50.27
2022-09-28T05:27:16.585Z,50.34
2022-09-28T05:29:48.015Z,50.19
2022-09-28T05:32:34.458Z,50.33
2022-09-28T05:35:26.910Z,50.32
2022-09-28T05:37:56.218Z,49.79
2022-09-28T05:40:24.640Z,49.71
2022-09-28T05:42:52.953Z,49.54
2022-09-28T05:45:21.202Z,49.87
2022-09-28T05:47:49.535Z,49.85
2022-09-28T05:50:20.479Z,49.79
2022-09-28T05:52:58.623Z,49.96
2022-09-28T05:55:27.177Z,49.86
2022-09-28T05:57:55.323Z,49.63
2022-09-28T06:00:23.719Z,49.52
2022-09-28T06:03:00.046Z,49.95
2022-09-28T06:05:29.480Z,49.51
2022-09-28T06:07:59.231Z,49.76
2022-09-28T06:10:28.016Z,49.74
2022-09-28T06:13:00.483Z,49.46
2022-09-28T06:15:29.515Z,49.67
2022-09-28T06:17:59.789Z,49.41
2022-09-28T06:20:38.777Z,49.40
2022-09-28T06:23:15.958Z,49.24
2022-09-28T06:25:44.875Z,49.36
2022-09-28T06:28:13.929Z,49.63
2022-09-28T06:30:42.323Z,49.54
2022-09-28T06:33:14.149Z,49.53
2022-09-28T06:35:42.600Z,48.93
2022-09-28T06:38:11.032Z,49.06
2022-09-28T06:40:40.829Z,49.20
2022-09-28T06:43:11.367Z,49.20
2022-09-28T06:45:58.030Z,49.23
2022-09-28T06:48:33.638Z,49.17
2022-09-28T06:51:02.633Z,48.82
2022-09-28T06:53:54.091Z,48.70
2022-09-28T06:56:43.707Z,48.23
2022-09-28T06:59:12.113Z,48.72
2022-09-28T07:01:40.463Z,48.94
2022-09-28T07:04:21.768Z,49.03
2022-09-28T07:07:16.315Z,48.91
2022-09-28T07:10:03.318Z,48.61
2022-09-28T07:12:59.441Z,48.41
2022-09-28T07:15:37.994Z,48.44
2022-09-28T07:18:07.087Z,48.22
2022-09-28T07:20:45.140Z,48.68
2022-09-28T07:23:20.953Z,48.59
2022-09-28T07:26:27.246Z,48.15
2022-09-28T07:29:15.218Z,48.07
2022-09-28T07:31:56.687Z,47.93
2022-09-28T07:35:00.392Z,48.00
2022-09-28T07:37:38.369Z,47.89
2022-09-28T07:40:25.687Z,48.12
2022-09-28T07:42:54.246Z,48.20
2022-09-28T07:45:24.637Z,48.13
2022-09-28T07:47:56.079Z,48.04
2022-09-28T07:50:51.886Z,48.33
2022-09-28T07:53:34.483Z,48.26
2022-09-28T07:56:28.491Z,47.74
2022-09-28T07:59:26.454Z,48.14
2022-09-28T08:02:14.805Z,47.87
2022-09-28T08:04:43.465Z,48.03
2022-09-28T08:07:11.955Z,47.86
2022-09-28T08:09:41.603Z,47.92
2022-09-28T08:12:19.782Z,47.35
2022-09-28T08:15:00.266Z,48.26
2022-09-28T08:17:41.847Z,47.93
2022-09-28T08:20:28.177Z,47.94
2022-09-28T08:22:56.926Z,48.02
2022-09-28T08:25:25.651Z,48.42
2022-09-28T08:27:53.968Z,48.10
2022-09-28T08:30:23.184Z,48.03
2022-09-28T08:33:13.673Z,48.16
2022-09-28T08:35:44.764Z,48.00
2022-09-28T08:38:29.558Z,47.75
2022-09-28T08:41:20.155Z,47.97
2022-09-28T08:44:17.359Z,47.97
2022-09-28T08:47:05.535Z,48.09
2022-09-28T08:49:46.279Z,47.91
2022-09-28T08:52:39.311Z,48.20
2022-09-28T08:55:38.186Z,48.10
2022-09-28T08:58:11.930Z,48.15
2022-09-28T09:00:42.419Z,47.96
2022-09-28T09:03:11.937Z,47.88
2022-09-28T09:05:48.499Z,48.00
2022-09-28T09:08:28.875Z,47.97
2022-09-28T09:10:59.538Z,47.93
2022-09-28T09:13:50.949Z,47.88
2022-09-28T09:16:29.717Z,47.71
2022-09-28T09:19:36.533Z,48.26
2022-09-28T09:22:35.457Z,47.71
2022-09-28T09:25:08.221Z,47.80
2022-09-28T09:27:43.978Z,47.40
2022-09-28T09:30:13.708Z,46.64
2022-09-28T09:33:06.496Z,46.98
2022-09-28T09:35:52.361Z,47.04
2022-09-28T09:39:04.402Z,47.06
2022-09-28T09:42:00.158Z,47.49
2022-09-28T09:44:56.713Z,47.30
2022-09-28T09:47:44.710Z,47.46
2022-09-28T09:50:30.135Z,47.61
2022-09-28T09:53:02.029Z,47.73
2022-09-28T09:55:33.195Z,47.85
2022-09-28T09:58:19.591Z,47.96
2022-09-28T10:00:54.046Z,48.46
2022-09-28T10:03:44.190Z,48.91
2022-09-28T10:06:18.084Z,48.91
2022-09-28T10:08:49.547Z,49.07
2022-09-28T10:11:22.845Z,49.94
2022-09-28T10:13:55.419Z,49.95
2022-09-28T10:16:43.204Z,50.44
2022-09-28T10:19:17.992Z,50.24
2022-09-28T10:22:06.732Z,50.39
2022-09-28T10:24:37.289Z,50.40
2022-09-28T10:27:08.742Z,50.72
2022-09-28T10:29:41.999Z,50.61
2022-09-28T10:32:19.606Z,50.53
2022-09-28T10:34:50.827Z,50.88
2022-09-28T10:37:22.518Z,50.61
2022-09-28T10:40:33.363Z,50.82
2022-09-28T10:43:04.349Z,50.68
2022-09-28T10:45:36.113Z,50.75
2022-09-28T10:48:06.623Z,50.27
2022-09-28T10:50:35.711Z,50.61
2022-09-28T10:53:19.569Z,50.52
2022-09-28T10:56:20.872Z,50.72
2022-09-28T10:58:53.810Z,50.62
2022-09-28T11:01:34.614Z,50.91
2022-09-28T11:04:06.286Z,50.74
2022-09-28T11:06:37.990Z,50.56
2022-09-28T11:09:08.694Z,50.57
2022-09-28T11:11:41.527Z,50.36
2022-09-28T11:14:23.530Z,50.45
2022-09-28T11:16:53.886Z,50.39
2022-09-28T11:19:29.014Z,50.51
2022-09-28T11:21:57.454Z,50.54
2022-09-28T11:24:34.811Z,50.51
2022-09-28T11:27:05.727Z,50.61
2022-09-28T11:29:38.761Z,50.46
2022-09-28T11:32:22.357Z,50.21
2022-09-28T11:35:32.262Z,50.13
2022-09-28T11:38:07.487Z,50.24
2022-09-28T11:41:12.262Z,49.98
2022-09-28T11:43:52.593Z,50.26
2022-09-28T11:46:27.351Z,50.27
2022-09-28T11:48:59.752Z,50.17
2022-09-28T11:51:28.723Z,50.42
2022-09-28T11:53:58.251Z,50.53
2022-09-28T11:56:32.609Z,50.22
2022-09-28T11:59:04.087Z,50.13
2022-09-28T12:01:45.151Z,50.40
2022-09-28T12:04:21.316Z,50.54
2022-09-28T12:06:52.703Z,50.42
2022-09-28T12:09:27.002Z,50.30
2022-09-28T12:12:04.477Z,50.38
2022-09-28T12:14:43.703Z,50.41
2022-09-28T12:17:20.223Z,50.03
2022-09-28T12:19:49.836Z,49.97
2022-09-28T12:22:19.787Z,49.62
2022-09-28T12:24:49.581Z,49.49
2022-09-28T12:27:20.383Z,49.17
2022-09-28T12:29:51.892Z,49.27
2022-09-28T12:32:27.383Z,49.16
2022-09-28T12:34:56.038Z,49.04
2022-09-28T12:37:33.336Z,48.80
2022-09-28T12:40:29.574Z,47.72
2022-09-28T12:43:05.570Z,47.35
2022-09-28T12:45:59.772Z,47.63
2022-09-28T12:49:33.165Z,48.41
2022-09-28T12:51:48.039Z,48.29
2022-09-28T12:54:33.057Z,48.62
2022-09-28T12:57:06.607Z,48.42
2022-09-28T12:59:36.963Z,48.53
2022-09-28T13:02:24.925Z,48.83
2022-09-28T13:05:01.668Z,48.73
2022-09-28T13:07:32.177Z,48.61
2022-09-28T13:10:05.695Z,48.54
2022-09-28T13:12:40.938Z,48.70
2022-09-28T13:15:24.864Z,48.65
2022-09-28T13:18:00.506Z,47.91
2022-09-28T13:20:39.575Z,47.18
2022-09-28T13:23:17.032Z,46.94
2022-09-28T13:25:47.814Z,47.05
2022-09-28T13:28:16.777Z,47.52
2022-09-28T13:30:45.344Z,47.73
2022-09-28T13:33:18.533Z,48.04
2022-09-28T13:35:48.169Z,47.78
2022-09-28T13:38:49.840Z,47.61
2022-09-28T13:41:23.480Z,47.86
2022-09-28T13:44:35.184Z,48.03
2022-09-28T13:47:13.222Z,47.87
2022-09-28T13:49:50.095Z,47.82
2022-09-28T13:52:32.242Z,47.82
2022-09-28T13:55:09.616Z,47.88
2022-09-28T13:57:42.182Z,47.93
2022-09-28T14:00:18.806Z,47.66
2022-09-28T14:02:48.514Z,47.56
2022-09-28T14:05:49.367Z,48.05
2022-09-28T14:08:35.176Z,48.08
2022-09-28T14:11:45.250Z,47.79
2022-09-28T14:14:30.511Z,47.96
2022-09-28T14:17:52.042Z,48.00
2022-09-28T14:20:20.763Z,47.62
2022-09-28T14:23:14.906Z,47.89
2022-09-28T14:25:46.298Z,47.91
2022-09-28T14:28:31.903Z,48.19
2022-09-28T14:31:00.940Z,48.11
2022-09-28T14:33:29.627Z,48.50
2022-09-28T14:35:58.963Z,48.00
2022-09-28T14:38:47.076Z,48.50
2022-09-28T14:41:29.847Z,48.30
2022-09-28T14:44:05.734Z,48.24
2022-09-28T14:46:36.174Z,48.28
2022-09-28T14:49:05.714Z,48.37
2022-09-28T14:52:04.717Z,48.19
2022-09-28T14:54:46.651Z,48.48
2022-09-28T14:57:30.213Z,48.29
2022-09-28T14:59:59.591Z,48.37
2022-09-28T15:02:30.506Z,48.31
2022-09-28T15:05:01.151Z,48.29
2022-09-28T15:07:33.002Z,48.33
2022-09-28T15:10:02.274Z,48.16
2022-09-28T15:12:31.918Z,48.06
2022-09-28T15:15:02.394Z,48.31
2022-09-28T15:17:34.616Z,48.46
2022-09-28T15:20:23.417Z,48.13
2022-09-28T15:22:52.942Z,48.48
2022-09-28T15:25:22.508Z,48.69
2022-09-28T15:27:54.269Z,48.88
2022-09-28T15:30:27.625Z,48.79
2022-09-28T15:32:57.055Z,48.58
2022-09-28T15:35:26.330Z,48.77
2022-09-28T15:37:55.709Z,49.16
2022-09-28T15:40:31.669Z,48.54
2022-09-28T15:43:02.611Z,48.68
2022-09-28T15:45:33.174Z,48.82
2022-09-28T15:48:19.360Z,49.03
2022-09-28T15:51:01.518Z,49.02
2022-09-28T15:53:31.615Z,48.86
2022-09-28T15:56:10.005Z,48.96
2022-09-28T15:58:40.073Z,48.84
2022-09-28T16:01:27.270Z,48.77
2022-09-28T16:03:55.608Z,48.94
2022-09-28T16:06:24.400Z,48.29
2022-09-28T16:08:52.584Z,48.36
2022-09-28T16:11:21.631Z,48.65
2022-09-28T16:13:56.982Z,48.88
2022-09-28T16:16:27.798Z,48.54
2022-09-28T16:18:56.031Z,48.50
2022-09-28T16:21:33.942Z,48.86
2022-09-28T16:24:02.397Z,48.90
2022-09-28T16:26:32.619Z,48.79
2022-09-28T16:29:02.297Z,48.75
2022-09-28T16:31:34.582Z,48.56
2022-09-28T16:34:11.646Z,48.67
2022-09-28T16:36:42.817Z,49.03
2022-09-28T16:39:11.764Z,49.03
2022-09-28T16:41:40.533Z,48.69
2022-09-28T16:44:15.444Z,48.16
2022-09-28T16:46:44.437Z,48.76
2022-09-28T16:49:18.778Z,48.35
2022-09-28T16:51:47.993Z,48.94
2022-09-28T16:54:35.373Z,48.72
2022-09-28T16:57:03.615Z,48.87
2022-09-28T16:59:33.379Z,48.74
2022-09-28T17:02:01.772Z,49.14
2022-09-28T17:04:29.953Z,48.98
2022-09-28T17:06:58.484Z,49.06
2022-09-28T17:09:26.684Z,49.07
2022-09-28T17:11:56.192Z,49.19
2022-09-28T17:14:25.059Z,49.16
2022-09-28T17:17:08.147Z,49.08
2022-09-28T17:19:37.883Z,49.15
2022-09-28T17:22:08.229Z,49.17
2022-09-28T17:24:36.449Z,49.37
2022-09-28T17:27:07.019Z,49.18
2022-09-28T17:29:35.470Z,49.10
2022-09-28T17:32:10.246Z,49.33
2022-09-28T17:34:38.440Z,49.70
2022-09-28T17:37:06.955Z,49.57
2022-09-28T17:39:35.458Z,49.09
2022-09-28T17:42:05.433Z,49.66
2022-09-28T17:44:35.520Z,49.57
2022-09-28T17:47:05.299Z,49.59
2022-09-28T17:49:36.202Z,49.43
2022-09-28T17:52:05.632Z,49.31
2022-09-28T17:54:33.889Z,49.59
2022-09-28T17:57:02.101Z,49.31
2022-09-28T17:59:31.444Z,49.68
2022-09-28T18:02:02.351Z,49.47
2022-09-28T18:04:51.267Z,49.41
2022-09-28T18:07:20.863Z,49.37
2022-09-28T18:09:49.259Z,49.61
2022-09-28T18:12:17.531Z,49.62
2022-09-28T18:14:47.257Z,49.57
2022-09-28T18:17:15.475Z,49.58
2022-09-28T18:19:45.275Z,49.75
2022-09-28T18:22:13.471Z,50.05
2022-09-28T18:24:42.022Z,50.00
2022-09-28T18:27:10.243Z,49.76
2022-09-28T18:29:38.424Z,49.83
2022-09-28T18:32:06.698Z,49.92
2022-09-28T18:34:37.178Z,49.92
2022-09-28T18:37:07.180Z,50.13
2022-09-28T18:39:36.362Z,49.89
2022-09-28T18:42:04.897Z,50.20
2022-09-28T18:44:33.147Z,50.29
2022-09-28T18:47:02.778Z,50.19
2022-09-28T18:49:31.638Z,50.67
2022-09-28T18:51:59.890Z,50.63
2022-09-28T18:54:29.486Z,50.50
2022-09-28T18:56:57.807Z,50.54
2022-09-28T18:59:26.067Z,50.98
2022-09-28T19:01:54.441Z,50.70
2022-09-28T19:04:22.970Z,50.64
2022-09-28T19:06:52.561Z,50.95
2022-09-28T19:09:21.922Z,51.14
2022-09-28T19:11:51.870Z,50.84
2022-09-28T19:14:20.290Z,51.26
2022-09-28T19:16:48.595Z,51.26
2022-09-28T19:19:17.802Z,51.17
2022-09-28T19:21:46.532Z,50.98
2022-09-28T19:24:15.123Z,50.99
2022-09-28T19:26:43.798Z,51.04
2022-09-28T19:29:13.468Z,51.26
2022-09-28T19:31:43.315Z,51.47
2022-09-28T19:34:13.528Z,51.46
2022-09-28T19:36:43.045Z,51.71
2022-09-28T19:39:13.795Z,51.45
2022-09-28T19:41:51.408Z,51.53
2022-09-28T19:44:35.890Z,51.44
2022-09-28T19:47:07.113Z,51.12
2022-09-28T19:49:36.858Z,51.47
2022-09-28T19:52:13.482Z,51.76
2022-09-28T19:54:43.982Z,51.46
2022-09-28T19:57:13.580Z,51.24
2022-09-28T19:59:43.262Z,51.50
2022-09-28T20:02:11.657Z,51.42
2022-09-28T20:04:39.871Z,51.52
2022-09-28T20:07:08.118Z,51.45
2022-09-28T20:09:36.392Z,51.59
2022-09-28T20:12:04.890Z,51.57
2022-09-28T20:14:38.006Z,51.56
2022-09-28T20:17:10.795Z,51.47
2022-09-28T20:19:39.302Z,51.66
2022-09-28T20:22:07.562Z,51.36
2022-09-28T20:24:36.018Z,51.48
2022-09-28T20:27:04.251Z,51.61
2022-09-28T20:29:33.595Z,51.60
2022-09-28T20:32:04.111Z,51.66
2022-09-28T20:34:34.589Z,51.33
2022-09-28T20:37:02.850Z,51.94
2022-09-28T20:39:31.070Z,51.83
2022-09-28T20:41:59.255Z,51.71
2022-09-28T20:44:27.575Z,51.88
2022-09-28T20:46:56.882Z,51.91
2022-09-28T20:49:26.377Z,51.91
2022-09-28T20:51:56.198Z,51.60
2022-09-28T20:54:24.439Z,51.89
2022-09-28T20:56:52.753Z,51.92
2022-09-28T20:59:23.000Z,51.51
2022-09-28T21:01:51.348Z,51.83
2022-09-28T21:04:20.160Z,51.47
2022-09-28T21:06:49.026Z,52.18
2022-09-28T21:09:18.743Z,51.71
2022-09-28T21:11:48.222Z,51.52
2022-09-28T21:14:16.897Z,51.82
2022-09-28T21:16:45.214Z,52.12
2022-09-28T21:19:13.622Z,51.87
2022-09-28T21:21:41.853Z,51.66
2022-09-28T21:24:10.317Z,51.80
2022-09-28T21:26:40.187Z,51.73
2022-09-28T21:29:09.251Z,51.74
2022-09-28T21:31:39.387Z,51.65
2022-09-28T21:34:07.718Z,51.80
2022-09-28T21:36:36.329Z,51.93
2022-09-28T21:39:09.547Z,51.73
2022-09-28T21:41:40.054Z,52.01
2022-09-28T21:44:08.350Z,52.06
2022-09-28T21:46:36.889Z,51.71
2022-09-28T21:49:06.387Z,51.78
2022-09-28T21:51:34.679Z,52.26
2022-09-28T21:54:03.008Z,51.89
2022-09-28T21:56:31.273Z,51.93
2022-09-28T21:59:01.422Z,52.22
2022-09-28T22:01:29.802Z,52.01
2022-09-28T22:03:58.177Z,52.02
2022-09-28T22:06:28.404Z,52.05
2022-09-28T22:08:56.802Z,52.27
2022-09-28T22:11:25.662Z,52.33
2022-09-28T22:13:54.719Z,52.19
2022-09-28T22:16:25.925Z,51.95
2022-09-28T22:18:54.227Z,52.08
2022-09-28T22:21:23.641Z,51.96
2022-09-28T22:23:52.046Z,51.82
2022-09-28T22:26:21.678Z,52.24
2022-09-28T22:28:50.701Z,52.21
2022-09-28T22:31:19.874Z,51.88
2022-09-28T22:33:50.067Z,52.00
2022-09-28T22:36:18.955Z,52.11
2022-09-28T22:38:47.365Z,52.10
2022-09-28T22:41:15.982Z,52.10
2022-09-28T22:43:44.404Z,52.05
2022-09-28T22:46:13.701Z,52.04
2022-09-28T22:48:42.445Z,51.93
2022-09-28T22:51:12.115Z,52.01
2022-09-28T22:53:40.415Z,52.06
2022-09-28T22:56:09.009Z,51.84
2022-09-28T22:58:37.577Z,52.33
2022-09-28T23:01:09.647Z,52.50
2022-09-28T23:03:40.185Z,52.02
2022-09-28T23:06:08.543Z,51.99
2022-09-28T23:08:38.275Z,52.03
2022-09-28T23:11:06.928Z,52.38
2022-09-28T23:13:35.285Z,52.25
2022-09-28T23:16:04.547Z,52.22
2022-09-28T23:18:33.656Z,52.35
2022-09-28T23:21:03.148Z,52.47
2022-09-28T23:23:31.633Z,52.25
2022-09-28T23:26:01.575Z,52.32
2022-09-28T23:28:30.342Z,52.25
2022-09-28T23:30:58.625Z,52.38
2022-09-28T23:33:26.869Z,52.17
2022-09-28T23:35:55.199Z,52.47
2022-09-28T23:38:23.533Z,52.46
2022-09-28T23:40:51.861Z,51.96
2022-09-28T23:43:21.546Z,52.00
2022-09-28T23:45:49.836Z,52.31
2022-09-28T23:48:18.372Z,52.35
2022-09-28T23:50:46.604Z,52.50
2022-09-28T23:53:15.201Z,52.26
2022-09-28T23:55:43.970Z,52.27
2022-09-28T23:58:12.844Z,52.67
